Latest Weather Observations for Gabo Island

IDN60801

Issued at 12:33 am EST Thursday 21 September 2017 (issued every 30 minutes, with the page automatically refreshed every 10 minutes)

About weather observations | Map of weather stations | Latest weather observations for NSW | Other Formats
Station Details ID: 084016 Name: GABO ISLAND LIGHTHOUSE Lat: -37.57 Lon: 149.92 Height: 15.2 m
Data from the previous 72 hours. | See also: Recent months at Gabo Island
Date/Time
EST
Temp
°C
App
Temp
°C
Dew
Point
°C
Rel
Hum
%
Delta-T
°C
Wind Press
QNH
hPa
Press
MSL
hPa
Rain since
9am
mm
Dir  Spd
km/h
Gust
km/h
Spd
kts
Gust
kts
21/12:30am 10.4 6.9 7.2 80 1.5 NNE 15 19 8 10 1016.2 - 0.0
21/12:00am 9.8 6.3 7.0 83 1.3 N 15 17 8 9 1016.5 1016.5 0.0
 
Date/Time
EST
Temp
°C
App
Temp
°C
Dew
Point
°C
Rel
Hum
%
Delta-T
°C
Wind Press
QNH
hPa
Press
MSL
hPa
Rain since
9am
mm
Dir  Spd
km/h
Gust
km/h
Spd
kts
Gust
kts
20/11:30pm 10.0 7.0 7.7 86 1.1 N 13 15 7 8 1016.7 - 0.0
20/11:00pm 11.5 8.6 8.0 79 1.7 NE 13 17 7 9 1017.1 - 0.0
20/10:30pm 10.8 7.8 7.7 81 1.5 NNE 13 15 7 8 1017.3 - 0.0
20/10:00pm 10.9 7.4 7.3 78 1.7 NNE 15 19 8 10 1017.3 - 0.0
20/09:30pm 9.5 6.3 6.7 83 1.3 N 13 15 7 8 1017.4 - 0.0
20/09:00pm 9.5 6.5 6.2 80 1.5 N 11 13 6 7 1017.6 1017.6 0.0
20/08:30pm 10.0 7.7 5.6 74 2.0 N 7 11 4 6 1017.7 - 0.0
20/08:00pm 10.2 8.2 7.0 80 1.5 NNW 7 9 4 5 1017.8 - 0.0
20/07:30pm 11.2 9.1 5.8 69 2.5 WSW 6 7 3 4 1017.8 - 0.0
20/07:00pm 11.1 8.8 5.9 70 2.4 SW 7 9 4 5 1017.8 - 0.0
20/06:30pm 12.2 9.6 6.3 67 2.8 SW 9 13 5 7 1017.6 - 0.0
20/06:00pm 12.6 9.3 6.3 65 3.0 SW 13 17 7 9 1017.5 1017.5 0.0
20/05:30pm 13.0 9.0 6.5 64 3.1 SW 17 20 9 11 1017.5 - 0.0
20/05:00pm 13.1 8.2 6.9 66 3.0 SSW 22 26 12 14 1017.2 - 0.0
20/04:30pm 13.2 7.8 6.5 64 3.2 SSW 24 28 13 15 1017.0 - 0.0
20/04:00pm 13.5 7.6 5.9 60 3.6 SSW 26 30 14 16 1016.9 - 0.0
20/03:30pm 13.5 7.2 5.6 59 3.7 SSW 28 33 15 18 1016.8 - 0.0
20/03:00pm 13.7 6.6 5.6 58 3.8 SSW 32 37 17 20 1017.1 1017.1 0.0
20/02:30pm 14.2 7.2 6.8 61 3.6 SSW 33 39 18 21 1017.2 - 0.0
20/02:00pm 14.4 7.3 6.5 59 3.8 SSW 33 37 18 20 1017.4 - 0.0
20/01:30pm 13.8 6.5 5.5 57 3.9 SSW 33 39 18 21 1017.5 - 0.0
20/01:00pm 13.7 6.4 5.4 57 3.9 SSW 33 39 18 21 1017.7 - 0.0
20/12:30pm 14.1 8.0 6.4 60 3.7 SSW 28 33 15 18 1018.3 - 0.0
20/12:00pm 14.4 8.4 5.5 55 4.2 SW 26 32 14 17 1018.9 1018.9 0.0
20/11:30am 15.0 9.3 5.0 51 4.7 WSW 24 32 13 17 1019.3 - 0.0
20/11:00am 14.1 9.1 4.8 53 4.3 WSW 20 26 11 14 1019.6 - 0.0
20/10:30am 13.6 7.1 4.7 55 4.1 WSW 28 35 15 19 1020.1 - 0.0
20/10:00am 13.2 5.8 3.9 53 4.2 WSW 32 39 17 21 1020.4 - 0.0
20/09:30am 13.3 6.3 4.3 54 4.1 WSW 30 41 16 22 1020.7 - 0.0
20/09:00am 12.0 4.0 3.7 57 3.7 WSW 35 43 19 23 1020.7 1020.7 0.0
20/08:30am 11.5 3.5 3.6 58 3.5 W 35 44 19 24 1021.0 - 0.0
20/08:00am 11.1 3.5 3.9 61 3.2 W 33 41 18 22 1020.8 - 0.0
20/07:30am 10.9 2.9 3.9 62 3.1 W 35 41 19 22 1020.5 - 0.0
20/07:00am 10.7 2.7 3.9 63 3.0 W 35 44 19 24 1020.3 - 0.0
20/06:30am 10.5 3.1 4.2 65 2.8 W 32 41 17 22 1020.3 - 0.0
20/06:00am 10.3 2.9 3.9 64 2.8 W 32 39 17 21 1020.0 1020.0 0.0
20/05:30am 10.0 2.6 4.1 67 2.6 W 32 39 17 21 1019.6 - 0.0
20/05:00am 10.2 2.0 4.6 68 2.5 WSW 37 50 20 27 1019.7 - 0.0
20/04:30am 10.2 2.8 5.1 70 2.3 W 33 43 18 23 1019.6 - 0.0
20/04:00am 9.7 2.6 5.3 74 2.0 W 32 41 17 22 1019.4 - 0.0
20/03:30am 9.7 1.7 5.5 75 1.9 W 37 44 20 24 1019.6 - 0.0
20/03:00am 10.0 2.2 6.6 79 1.6 WSW 37 46 20 25 1019.6 1019.6 0.0
20/02:30am 9.5 1.6 6.0 79 1.6 W 37 48 20 26 1019.6 - 0.0
20/02:00am 9.8 2.3 6.3 79 1.6 W 35 43 19 23 1019.7 - 0.0
20/01:30am 10.0 1.5 7.0 81 1.4 WSW 41 52 22 28 1019.9 - 0.0
20/01:00am 10.5 0.7 7.1 79 1.6 WSW 48 61 26 33 1019.8 - 0.0
20/12:30am 11.3 2.8 5.2 66 2.8 W 39 46 21 25 1019.5 - 0.0
20/12:00am 11.3 1.9 5.2 66 2.8 WSW 44 56 24 30 1019.4 1019.4 0.0
 
Date/Time
EST
Temp
°C
App
Temp
°C
Dew
Point
°C
Rel
Hum
%
Delta-T
°C
Wind Press
QNH
hPa
Press
MSL
hPa
Rain since
9am
mm
Dir  Spd
km/h
Gust
km/h
Spd
kts
Gust
kts
19/11:30pm 11.3 1.3 6.2 71 2.4 WSW 48 59 26 32 1019.4 - 0.0
19/11:04pm 11.3 1.2 5.7 68 2.6 WSW 48 76 26 41 1019.4 - 0.0
19/11:00pm 11.5 1.2 4.9 64 3.0 WSW 48 59 26 32 1019.2 - 0.0
19/10:34pm 11.5 1.2 6.6 72 2.3 SW 50 69 27 37 1019.3 - 0.0
19/10:30pm 11.5 0.1 6.6 72 2.3 SW 56 69 30 37 1019.3 - 0.0
19/10:00pm 11.9 1.4 5.4 64 3.0 WSW 50 63 27 34 1019.4 - 0.0
19/09:30pm 11.7 1.3 5.9 67 2.7 WSW 50 61 27 33 1019.2 - 0.0
19/09:00pm 11.8 0.5 5.5 65 2.9 WSW 54 69 29 37 1019.2 1019.2 0.0
19/08:32pm 12.1 1.7 6.1 67 2.8 WSW 50 74 27 40 1019.0 - 0.0
19/08:30pm 12.0 1.5 5.5 64 3.0 WSW 50 61 27 33 1018.9 - 0.0
19/08:00pm 12.1 1.2 5.6 64 3.0 WSW 52 65 28 35 1018.7 - 0.0
19/07:36pm 12.0 0.3 5.5 64 3.0 WSW 56 74 30 40 1018.7 - 0.0
19/07:30pm 11.9 -0.3 5.6 65 2.9 WSW 59 74 32 40 1018.6 - 0.0
19/07:16pm 12.2 0.9 5.5 63 3.1 WSW 54 72 29 39 1018.2 - 0.0
19/07:00pm 11.7 1.3 5.9 67 2.7 WSW 50 61 27 33 1018.1 - 0.0
19/06:30pm 11.9 -0.1 4.9 62 3.2 WSW 57 69 31 37 1017.6 - 0.0
19/06:03pm 12.3 -0.8 6.6 68 2.7 SW 65 83 35 45 1017.2 - 0.0
19/06:00pm 11.9 -1.8 5.9 66 2.8 SW 67 83 36 45 1017.2 1017.2 0.0
19/05:41pm 12.4 1.2 5.8 64 3.1 WSW 54 76 29 41 1017.0 - 0.0
19/05:30pm 12.1 1.2 5.4 63 3.1 WSW 52 69 28 37 1016.9 - 0.0
19/05:00pm 12.1 1.7 6.1 67 2.8 WSW 50 69 27 37 1016.5 - 0.0
19/04:32pm 12.4 0.6 5.8 64 3.1 WSW 57 78 31 42 1015.9 - 0.0
19/04:30pm 12.3 -0.3 5.6 63 3.1 WSW 61 78 33 42 1015.9 - 0.0
19/04:00pm 12.9 0.8 4.3 56 3.9 WSW 57 72 31 39 1015.4 - 0.0
19/03:43pm 13.1 1.8 5.6 60 3.5 WSW 54 72 29 39 1015.2 - 0.0
19/03:30pm 13.0 -0.3 5.8 61 3.4 SW 65 78 35 42 1015.0 - 0.0
19/03:00pm 12.8 0.8 5.0 59 3.6 WSW 57 70 31 38 1014.9 1014.9 0.0
19/02:49pm 12.0 -1.2 6.5 69 2.6 SW 65 85 35 46 1014.7 - 0.0
19/02:30pm 13.2 1.1 6.3 63 3.3 SW 59 74 32 40 1014.6 - 0.0
19/02:04pm 13.2 0.3 6.0 61 3.4 SW 63 82 34 44 1014.4 - 0.0
19/02:00pm 12.9 -0.2 6.6 65 3.0 SW 65 82 35 44 1014.3 - 0.0
19/01:53pm 13.4 0.7 7.0 65 3.1 SW 63 82 34 44 1014.3 - 0.0
19/01:30pm 13.4 0.5 5.8 60 3.6 SW 63 74 34 40 1014.0 - 0.0
19/01:13pm 13.3 1.2 5.9 61 3.5 SW 59 78 32 42 1014.0 - 0.0
19/01:00pm 13.3 0.8 4.3 54 4.1 SW 59 72 32 39 1014.0 - 0.0
19/12:30pm 14.4 1.7 3.3 47 5.0 WSW 59 76 32 41 1013.7 - 0.0
19/12:17pm 14.3 2.1 3.8 49 4.8 WSW 57 76 31 41 1013.7 - 0.0
19/12:00pm 14.2 2.0 5.8 57 4.0 SW 59 74 32 40 1013.6 1013.6 0.0
19/11:30am 14.6 2.6 3.6 47 5.0 WSW 56 74 30 40 1013.4 - 0.0
19/11:10am 14.9 4.2 4.6 50 4.8 WSW 50 69 27 37 1013.5 - 0.0
19/11:00am 14.2 2.5 3.3 48 4.9 WSW 54 70 29 38 1013.6 - 0.0
19/10:30am 14.4 3.7 4.7 52 4.5 WSW 50 70 27 38 1013.5 - 0.0
19/10:03am 14.0 2.5 4.2 51 4.5 WSW 54 74 29 40 1013.3 - 0.0
19/10:00am 13.8 2.3 4.2 52 4.4 WSW 54 67 29 36 1013.3 - 0.0
19/09:38am 14.1 3.3 4.3 51 4.5 WSW 50 70 27 38 1013.0 - 0.0
19/09:30am 14.3 3.9 6.2 58 3.9 WSW 50 61 27 33 1013.0 - 0.0
19/09:00am 13.8 2.5 5.3 56 4.0 WSW 54 72 29 39 1012.7 1012.7 0.2
19/08:40am 13.7 3.2 5.4 57 3.9 WSW 50 69 27 37 1012.7 - 0.2
19/08:30am 13.5 3.8 5.9 60 3.6 WSW 46 57 25 31 1012.6 - 0.2
19/08:00am 13.1 3.9 6.2 63 3.3 WSW 44 61 24 33 1012.6 - 0.2
19/07:30am 13.0 5.3 7.0 67 2.9 WSW 37 50 20 27 1012.3 - 0.2
19/07:00am 12.5 5.9 7.6 72 2.4 W 32 44 17 24 1012.1 - 0.2
19/06:30am 12.4 3.7 7.9 74 2.2 W 43 56 23 30 1011.4 - 0.2
19/06:07am 12.2 6.6 8.6 78 1.8 W 28 46 15 25 1010.6 - 0.2
19/06:00am 12.0 7.1 8.4 78 1.8 W 24 37 13 20 1010.0 1010.0 0.2
19/05:30am 12.8 3.9 7.5 70 2.6 W 44 59 24 32 1010.6 - 0.0
19/05:00am 14.0 5.8 8.0 67 3.0 WSW 41 59 22 32 1009.9 - 0.0
19/04:57am 14.0 5.7 7.7 66 3.1 WSW 41 59 22 32 1009.9 - 0.0
19/04:52am 14.0 6.1 8.0 67 3.0 WSW 39 50 21 27 1009.6 - 0.0
19/04:30am 14.3 6.5 9.6 73 2.4 SW 41 46 22 25 1009.4 - 0.0
19/04:00am 14.5 7.7 9.4 71 2.6 SW 35 44 19 24 1009.5 - 0.0
19/03:30am 14.8 7.0 9.8 72 2.6 SW 41 54 22 29 1009.2 - 0.0
19/03:00am 15.0 6.9 10.0 72 2.6 SW 43 52 23 28 1009.1 1009.1 0.0
19/02:59am 14.9 6.8 10.1 73 2.5 SW 43 52 23 28 1009.1 - 0.0
19/02:30am 15.2 3.4 8.9 66 3.2 SW 61 74 33 40 1008.8 - 0.0
19/02:24am 15.9 3.7 9.1 64 3.5 SW 63 72 34 39 1008.8 - 0.0
19/02:20am 16.0 8.4 7.4 56 4.3 WSW 37 67 20 36 1008.8 - 0.0
19/02:16am 15.1 8.1 6.0 54 4.4 WSW 32 48 17 26 1008.8 - 0.0
19/02:00am 15.9 11.9 2.9 41 5.9 NW 13 19 7 10 1008.0 - 0.0
19/01:30am 17.6 11.5 -2.2 26 8.2 N 20 28 11 15 1007.9 - 0.0
19/01:00am 17.5 9.2 -2.0 26 8.1 N 32 41 17 22 1008.0 - 0.0
19/12:30am 18.4 9.7 -4.9 20 9.2 N 32 39 17 21 1008.1 - 0.0
19/12:00am 17.6 11.0 -0.6 29 7.8 N 24 32 13 17 1008.6 1008.6 0.0
 
Date/Time
EST
Temp
°C
App
Temp
°C
Dew
Point
°C
Rel
Hum
%
Delta-T
°C
Wind Press
QNH
hPa
Press
MSL
hPa
Rain since
9am
mm
Dir  Spd
km/h
Gust
km/h
Spd
kts
Gust
kts
18/11:30pm 15.4 12.3 1.2 38 6.2 NNE 7 13 4 7 1009.3 - 0.0
18/11:00pm 16.1 12.8 2.6 40 6.1 E 9 13 5 7 1009.7 - 0.0
18/10:30pm 16.7 11.3 1.3 35 6.8 NNE 19 20 10 11 1010.1 - 0.0
18/10:00pm 16.3 12.1 7.5 56 4.4 NNE 19 28 10 15 1010.5 - 0.0
18/09:30pm 14.4 10.4 4.7 52 4.5 N 15 17 8 9 1011.0 - 0.0
18/09:00pm 12.1 8.5 4.9 61 3.3 N 13 17 7 9 1011.5 1011.5 0.0
18/08:30pm 13.5 11.8 5.9 60 3.6 W 4 6 2 3 1011.7 - 0.0
18/08:00pm 13.7 10.0 4.6 54 4.2 NNW 13 17 7 9 1011.6 - 0.0
18/07:30pm 12.4 9.9 8.4 76 2.0 N 11 13 6 7 1011.5 - 0.0
18/07:00pm 13.9 11.4 9.6 75 2.2 N 13 17 7 9 1011.2 - 0.0
18/06:30pm 15.1 11.9 11.8 81 1.8 NNE 20 24 11 13 1010.7 - 0.0
18/06:00pm 15.6 12.3 11.5 76 2.2 NNE 20 24 11 13 1010.8 1010.8 0.0
18/05:30pm 16.1 11.8 10.9 71 2.8 NNE 24 32 13 17 1011.0 - 0.0
18/05:00pm 16.7 10.9 10.7 67 3.2 NNE 32 37 17 20 1010.9 - 0.0
18/04:30pm 17.2 13.1 10.2 63 3.7 NNE 22 26 12 14 1011.3 - 0.0
18/04:00pm 17.1 11.0 10.3 64 3.6 NE 33 41 18 22 1011.3 - 0.0
18/03:30pm 17.8 11.9 10.3 61 4.0 NNE 32 35 17 19 1011.4 - 0.0
18/03:00pm 17.5 11.4 10.6 64 3.7 NNE 33 39 18 21 1011.9 1012.0 0.0
18/02:30pm 16.9 10.9 10.1 64 3.6 NE 32 37 17 20 1012.4 - 0.0
18/02:00pm 17.6 11.0 8.7 56 4.6 NNE 33 39 18 21 1012.6 - 0.0
18/01:30pm 17.4 10.9 8.9 57 4.4 NE 33 39 18 21 1013.1 - 0.0
18/01:00pm 17.3 10.8 8.8 57 4.4 NNE 33 39 18 21 1013.6 - 0.0
18/12:30pm 17.0 12.2 10.2 64 3.6 NE 26 32 14 17 1014.4 - 0.0
18/12:00pm 16.9 11.1 9.6 62 3.8 NE 30 33 16 18 1015.0 1015.0 0.0
18/11:30am 17.0 11.9 9.3 60 4.0 NE 26 32 14 17 1015.6 - 0.0
18/11:00am 15.8 10.3 9.2 65 3.4 NE 28 33 15 18 1016.3 - 0.0
18/10:30am 16.0 11.0 8.1 59 4.0 NE 24 28 13 15 1016.8 - 0.0
18/10:00am 15.6 10.1 7.6 59 4.0 NE 26 30 14 16 1017.3 - 0.0
18/09:30am 15.3 10.0 6.7 56 4.2 NNE 24 28 13 15 1017.7 - 0.0
18/09:00am 14.3 8.8 5.9 57 4.0 NNE 24 28 13 15 1018.2 1018.2 0.2
18/08:30am 13.4 9.6 5.7 59 3.6 NNE 15 17 8 9 1018.6 - 0.2
18/08:00am 12.3 8.2 4.1 57 3.7 N 15 20 8 11 1018.9 - 0.2
18/07:30am 12.1 9.5 4.1 58 3.6 N 7 19 4 10 1019.1 - 0.2
18/07:00am 11.0 4.3 3.5 60 3.3 N 28 33 15 18 1018.9 - 0.2
18/06:30am 10.2 4.2 3.6 63 2.9 N 24 28 13 15 1018.8 - 0.2
18/06:00am 9.4 3.8 3.6 67 2.5 N 22 28 12 15 1019.0 1019.0 0.2
18/05:30am 9.6 4.4 3.6 66 2.6 N 20 26 11 14 1019.2 - 0.2
18/05:00am 10.7 4.7 3.6 61 3.1 N 24 30 13 16 1019.2 - 0.2
18/04:30am 10.8 5.3 4.0 63 3.0 NNE 22 26 12 14 1019.4 - 0.2
18/04:00am 11.0 4.4 4.3 63 3.0 N 28 35 15 19 1019.6 - 0.2
18/03:30am 11.0 3.9 3.5 60 3.3 N 30 37 16 20 1019.6 - 0.2
18/03:00am 11.1 4.7 3.0 57 3.5 N 26 35 14 19 1019.9 1019.9 0.2
18/02:30am 11.3 5.0 3.6 59 3.4 NNE 26 32 14 17 1020.1 - 0.2
18/02:00am 11.2 5.2 3.2 58 3.5 N 24 32 13 17 1020.7 - 0.2
18/01:30am 11.2 6.2 3.4 58 3.4 N 19 26 10 14 1021.3 - 0.2
18/01:00am 11.4 5.9 4.2 61 3.2 N 22 30 12 16 1021.7 - 0.2

Other Formats:

Comma delimited format used in spreadsheet applications
http://www.bom.gov.au/fwo/IDN60801/IDN60801.94933.axf

JavaScript Object Notation format (JSON) in row-major order
http://www.bom.gov.au/fwo/IDN60801/IDN60801.94933.json